Cody, WY

2:09 AM MST on December 06, 2016 (GMT -0700)
Yellowstone Regional

Weather History for KCOD - November, 2014

Change the Weather History Date:

Sunday, November 9, 2014

  Actual Average Record
Temperature  
Mean Temperature 44 °F -  
Max Temperature 62 °F 46 °F 67 °F (1954)
Min Temperature 24 °F 24 °F -5 °F (1966)
Degree Days  
Heating Degree Days 21    
Moisture  
Dew Point 28 °F    
Average Humidity 41    
Maximum Humidity 93    
Minimum Humidity 26    
Precipitation  
Precipitation 0.00 in - - ()
Sea Level Pressure  
Sea Level Pressure 29.67 in    
Wind  
Wind Speed 13 mph (West)    
Max Wind Speed 23 mph    
Max Gust Speed 36 mph    
Visibility 10 miles    
Events      
Averages and records for this station are not official NWS values.
T = Trace of Precipitation, MM = Missing Value Source: NWS Daily Summary

Daily Weather History Graph

Daily Weather History Graph

Search for Another Location

Airport or City:

Trip Planner

Search our weather history database for the weather conditions in past years. The results will help you decide how hot, cold, wet, or windy it might be!

Date:

Astronomy

Nov. 09, 2014 Rise Set
Actual Time 7:04 AM MST 4:54 PM MST
Civil Twilight 6:33 AM MST 5:25 PM MST
Nautical Twilight 5:58 AM MST 6:00 PM MST
Astronomical Twilight 5:24 AM MST 6:34 PM MST
Moon 7:28 PM MST (11/9) 9:41 AM MST (11/9)
Length of Visible Light 10h 52m
Length of Day
9h 50m
Waning Gibbous, 91% of the Moon is Illuminated
Nov 9
Waning Gibbous
Nov 14
Last Quarter
Nov 22
New
Nov 29
First Quarter
Dec 6
Full

Hourly Weather History & Observations

Time (MST) Temp. Windchill Dew Point Humidity Pressure Visibility Wind Dir Wind Speed Gust Speed Precip Events Conditions
12:15 AM 55.4 °F - 23.0 °F 29% 29.98 in 10.0 mi West 18.4 mph 27.6 mph N/A   Clear
12:35 AM 53.6 °F - 21.2 °F 28% 29.97 in 10.0 mi West 12.7 mph 20.7 mph N/A   Clear
12:55 AM 53.6 °F - 21.2 °F 28% 29.96 in 10.0 mi West 12.7 mph 28.8 mph N/A   Clear
1:15 AM 53.6 °F - 23.0 °F 30% 29.95 in 10.0 mi West 16.1 mph 26.5 mph N/A   Clear
1:35 AM 53.6 °F - 23.0 °F 30% 29.95 in 10.0 mi West 11.5 mph 18.4 mph N/A   Clear
1:55 AM 53.6 °F - 23.0 °F 30% 29.94 in 10.0 mi WSW 10.4 mph 23.0 mph N/A   Clear
2:15 AM 53.6 °F - 23.0 °F 30% 29.95 in 10.0 mi West 15.0 mph 26.5 mph N/A   Clear
2:35 AM 53.6 °F - 24.8 °F 33% 29.96 in 10.0 mi West 5.8 mph - N/A   Clear
2:55 AM 53.6 °F - 24.8 °F 33% 29.95 in 10.0 mi WSW 8.1 mph - N/A   Clear
3:15 AM 51.8 °F - 24.8 °F 35% 29.94 in 10.0 mi West 9.2 mph 16.1 mph N/A   Clear
3:35 AM 51.8 °F - 24.8 °F 35% 29.93 in 10.0 mi WSW 16.1 mph 24.2 mph N/A   Clear
3:55 AM 53.6 °F - 24.8 °F 33% 29.92 in 10.0 mi WSW 18.4 mph 28.8 mph N/A   Clear
4:15 AM 53.6 °F - 24.8 °F 33% 29.91 in 10.0 mi WSW 13.8 mph 20.7 mph N/A   Clear
4:35 AM 53.6 °F - 24.8 °F 33% 29.91 in 10.0 mi West 12.7 mph 23.0 mph N/A   Clear
4:55 AM 53.6 °F - 24.8 °F 33% 29.91 in 10.0 mi WNW 8.1 mph 19.6 mph N/A   Clear
5:15 AM 50.0 °F - 26.6 °F 40% 29.90 in 10.0 mi West 8.1 mph - N/A   Clear
5:35 AM 50.0 °F - 26.6 °F 40% 29.89 in 10.0 mi West 4.6 mph - N/A   Clear
5:55 AM 48.2 °F - 26.6 °F 43% 29.89 in 10.0 mi WSW 5.8 mph - N/A   Clear
6:15 AM 48.2 °F - 26.6 °F 43% 29.87 in 10.0 mi WSW 3.5 mph - N/A   Clear
6:35 AM 48.2 °F - 26.6 °F 43% 29.86 in 10.0 mi West 5.8 mph - N/A   Clear
6:55 AM 51.8 °F - 26.6 °F 38% 29.85 in 10.0 mi WNW 9.2 mph - N/A   Clear
7:15 AM 53.6 °F - 24.8 °F 33% 29.83 in 10.0 mi West 8.1 mph 16.1 mph N/A   Clear
7:35 AM 51.8 °F - 24.8 °F 35% 29.82 in 10.0 mi WNW 6.9 mph - N/A   Clear
7:55 AM 51.8 °F - 26.6 °F 38% 29.80 in 10.0 mi WSW 13.8 mph 21.9 mph N/A   Clear
8:15 AM 53.6 °F - 26.6 °F 35% 29.78 in 10.0 mi West 18.4 mph 28.8 mph N/A   Clear
8:35 AM 55.4 °F - 24.8 °F 31% 29.80 in 10.0 mi North 5.8 mph 31.1 mph N/A   Clear
8:55 AM 53.6 °F - 26.6 °F 35% 29.80 in 10.0 mi NNW 8.1 mph - N/A   Clear
9:15 AM 55.4 °F - 26.6 °F 33% 29.79 in 10.0 mi NW 3.5 mph 16.1 mph N/A   Clear
9:35 AM 55.4 °F - 26.6 °F 33% 29.77 in 10.0 mi West 6.9 mph - N/A   Clear
9:55 AM 55.4 °F - 26.6 °F 33% 29.75 in 10.0 mi NNW 3.5 mph - N/A   Clear
10:15 AM 57.2 °F - 26.6 °F 31% 29.75 in 10.0 mi WNW 11.5 mph 16.1 mph N/A   Clear
10:35 AM 59.0 °F - 26.6 °F 29% 29.72 in 10.0 mi West 10.4 mph 20.7 mph N/A   Clear
10:55 AM 59.0 °F - 26.6 °F 29% 29.70 in 10.0 mi WSW 18.4 mph 32.2 mph N/A   Clear
11:15 AM 60.8 °F - 26.6 °F 27% 29.69 in 10.0 mi WSW 17.3 mph 33.4 mph N/A   Clear
11:35 AM 60.8 °F - 26.6 °F 27% 29.66 in 10.0 mi SW 19.6 mph 34.5 mph N/A   Clear
11:55 AM 62.6 °F - 26.6 °F 26% 29.65 in 10.0 mi WSW 21.9 mph 33.4 mph N/A   Clear
12:15 PM 62.6 °F - 26.6 °F 26% 29.64 in 10.0 mi WSW 21.9 mph 35.7 mph N/A   Clear
12:35 PM 62.6 °F - 26.6 °F 26% 29.63 in 10.0 mi WSW 18.4 mph 31.1 mph N/A   Partly Cloudy
12:55 PM 60.8 °F - 26.6 °F 27% 29.62 in 10.0 mi SW 12.7 mph 25.3 mph N/A   Mostly Cloudy
1:15 PM 60.8 °F - 26.6 °F 27% 29.59 in 10.0 mi SW 11.5 mph 21.9 mph N/A   Overcast
1:35 PM 62.6 °F - 28.4 °F 27% 29.58 in 10.0 mi West 11.5 mph 26.5 mph N/A   Scattered Clouds
1:55 PM 60.8 °F - 28.4 °F 29% 29.56 in 10.0 mi WSW 5.8 mph 26.5 mph N/A   Clear
2:15 PM 60.8 °F - 28.4 °F 29% 29.54 in 10.0 mi WSW 16.1 mph 29.9 mph N/A   Clear
2:35 PM 60.8 °F - 28.4 °F 29% 29.51 in 10.0 mi WSW 15.0 mph 21.9 mph N/A   Clear
2:55 PM 60.8 °F - 28.4 °F 29% 29.50 in 10.0 mi WSW 17.3 mph 27.6 mph N/A   Clear
3:15 PM 60.8 °F - 28.4 °F 29% 29.49 in 10.0 mi West 18.4 mph 24.2 mph N/A   Clear
3:35 PM 60.8 °F - 28.4 °F 29% 29.46 in 10.0 mi West 16.1 mph 28.8 mph N/A   Clear
3:55 PM 59.0 °F - 28.4 °F 31% 29.46 in 10.0 mi West 15.0 mph 24.2 mph N/A   Clear
4:15 PM 59.0 °F - 28.4 °F 31% 29.45 in 10.0 mi West 18.4 mph 26.5 mph N/A   Clear
4:35 PM 59.0 °F - 30.2 °F 34% 29.44 in 10.0 mi WSW 13.8 mph 25.3 mph N/A   Clear
4:55 PM 59.0 °F - 30.2 °F 34% 29.42 in 10.0 mi West 13.8 mph 25.3 mph N/A   Clear
5:15 PM 57.2 °F - 30.2 °F 36% 29.43 in 10.0 mi WSW 21.9 mph 28.8 mph N/A   Clear
5:35 PM 57.2 °F - 32.0 °F 38% 29.45 in 10.0 mi West 16.1 mph 27.6 mph N/A   Clear
5:55 PM 57.2 °F - 33.8 °F 41% 29.44 in 10.0 mi West 11.5 mph 19.6 mph N/A   Clear
6:15 PM 55.4 °F - 33.8 °F 44% 29.45 in 10.0 mi NE 10.4 mph - N/A   Clear
6:35 PM 53.6 °F - 33.8 °F 47% 29.45 in 10.0 mi East 4.6 mph - N/A   Clear
6:55 PM 53.6 °F - 33.8 °F 47% 29.45 in 10.0 mi WSW 6.9 mph 19.6 mph N/A   Partly Cloudy
7:15 PM 55.4 °F - 33.8 °F 44% 29.46 in 10.0 mi West 11.5 mph 19.6 mph N/A   Scattered Clouds
7:35 PM 53.6 °F - 35.6 °F 51% 29.44 in 10.0 mi WSW 8.1 mph 19.6 mph N/A   Partly Cloudy
7:55 PM 51.8 °F - 37.4 °F 58% 29.42 in 10.0 mi WSW 16.1 mph 26.5 mph N/A   Clear
8:15 PM 51.8 °F - 37.4 °F 58% 29.43 in 10.0 mi West 12.7 mph 21.9 mph N/A   Clear
8:35 PM 51.8 °F - 37.4 °F 58% 29.44 in 10.0 mi West 10.4 mph 17.3 mph N/A   Scattered Clouds
8:55 PM 51.8 °F - 35.6 °F 54% 29.45 in 10.0 mi WNW 10.4 mph 19.6 mph N/A   Mostly Cloudy
9:15 PM 44.6 °F 39.2 °F 35.6 °F 71% 29.45 in 10.0 mi NNE 10.4 mph - N/A   Scattered Clouds
9:35 PM 44.6 °F 39.7 °F 35.6 °F 71% 29.46 in 10.0 mi North 9.2 mph - N/A   Clear
9:55 PM 44.6 °F 39.2 °F 37.4 °F 76% 29.47 in 10.0 mi NNE 10.4 mph - N/A   Partly Cloudy
10:15 PM 42.8 °F 39.3 °F 39.2 °F 87% 29.48 in 10.0 mi NNE 5.8 mph - N/A   Mostly Cloudy
10:35 PM 42.8 °F 34.3 °F 39.2 °F 87% 29.48 in 10.0 mi NNE 19.6 mph 24.2 mph N/A   Overcast
10:55 PM 39.2 °F 29.3 °F 37.4 °F 93% 29.49 in 10.0 mi North 20.7 mph 28.8 mph N/A   Overcast
11:15 PM 33.8 °F 21.6 °F 26.6 °F 75% 29.54 in 5.0 mi North 23.0 mph 33.4 mph N/A   Overcast
11:35 PM 26.6 °F 12.7 °F 21.2 °F 80% 29.58 in 2.5 mi North 20.7 mph 33.4 mph N/A   Overcast
11:55 PM 24.8 °F 9.6 °F 19.4 °F 80% 29.58 in 3.0 mi NNW 23.0 mph 29.9 mph N/A   Overcast